Hovedside
METAR-TAF:

METAR-TAF

Lufthavner :

Trondheim, Norge

Trondheim lufthavn

breddegrad: 63-28N, lengdegrad: 010-56E, høyde over havet: 1 m

Gjeldene værobservasjon

Denne rapporten ble laget for 19 minutter siden, klokken 22:20 UTC
Vind 6 kt fra Sørøst
Temperatur 15°C
Luftfuktighet 77%
Trykk 1016 hPa
Sikt 10 km eller mer
ingen skyer under 1500 m og ingen bygeskyer

METAR: ENVA 242220Z 14006KT CAVOK 15/11 Q1016 RMK WIND 670FT 16007KT

Tid: 00:39 (22:39 UTC)

Varsel

Varsel gyldig fra 24. klokken 18 UTC til 25. klokken 18 UTC
Vind 7 kt fra Øst-sørøst
Sikt 10 km eller mer
ingen skyer under 1500 m og ingen bygeskyer
Sannsynlighet 30% :
Midlertidig
fra 25. klokken 12 UTC til 25. klokken 18 UTC
Vind 12 kt fra Vest
Spredte skyer i en høyde av 3000 ft, Bygeskyer.
Brutte skyer i en høyde av 5000 ft
regnbyger

TAF: ENVA 2418/2518 12007KT CAVOK PROB30 TEMPO 2512/2518 28012KT SHRA SCT030CB BKN050

Værobservasjoner og værvarsel for over 4000 flyplasser (METAR- og TAF-rapporter).

Tilgjengelige stasjoner er representert av de røde og gule prikkene på kartet.

Hold musepekeren over prikken for å se navnet på stasjonen.

Klikk så for å se værobservasjoner og -varsler.

For å forandre kartet kan du klikke på den grønne knappen med svart kryss for å zoome inn, på den grønne knappen med strek for å zoome ut, eller på de grønne pilene for å se tilstøtende kart.


METAR-TAF: